sensor_id;sensor_type;location;lat;lon;timestamp;P1;durP1;ratioP1;P2;durP2;ratioP2
12631;SDS011;6381;45.748;12.106;2022-11-20T00:30:01;6.80;;;6.20;;
12631;SDS011;6381;45.748;12.106;2022-11-20T00:32:30;7.10;;;6.40;;
12631;SDS011;6381;45.748;12.106;2022-11-20T00:35:00;6.80;;;6.20;;
12631;SDS011;6381;45.748;12.106;2022-11-20T00:37:28;6.90;;;6.30;;
12631;SDS011;6381;45.748;12.106;2022-11-20T00:39:59;6.50;;;5.83;;
12631;SDS011;6381;45.748;12.106;2022-11-20T00:42:28;6.60;;;5.90;;
12631;SDS011;6381;45.748;12.106;2022-11-20T00:45:01;6.17;;;5.57;;
12631;SDS011;6381;45.748;12.106;2022-11-20T00:47:31;6.10;;;5.37;;
12631;SDS011;6381;45.748;12.106;2022-11-20T00:49:59;6.00;;;5.50;;
12631;SDS011;6381;45.748;12.106;2022-11-20T00:52:28;5.80;;;5.30;;
12631;SDS011;6381;45.748;12.106;2022-11-20T00:54:57;5.80;;;5.23;;
12631;SDS011;6381;45.748;12.106;2022-11-20T00:57:26;6.33;;;5.67;;
12631;SDS011;6381;45.748;12.106;2022-11-20T00:59:55;6.23;;;5.63;;
12631;SDS011;6381;45.748;12.106;2022-11-20T01:02:25;6.27;;;5.67;;
12631;SDS011;6381;45.748;12.106;2022-11-20T01:04:54;8.03;;;6.70;;
12631;SDS011;6381;45.748;12.106;2022-11-20T01:07:23;6.60;;;5.90;;
12631;SDS011;6381;45.748;12.106;2022-11-20T01:09:52;6.50;;;5.90;;
12631;SDS011;6381;45.748;12.106;2022-11-20T01:12:20;6.90;;;6.30;;
12631;SDS011;6381;45.748;12.106;2022-11-20T01:14:49;7.07;;;6.37;;
12631;SDS011;6381;45.748;12.106;2022-11-20T01:17:18;7.00;;;6.30;;
12631;SDS011;6381;45.748;12.106;2022-11-20T01:19:49;10.00;;;7.40;;
12631;SDS011;6381;45.748;12.106;2022-11-20T01:22:18;7.23;;;6.57;;
12631;SDS011;6381;45.748;12.106;2022-11-20T01:24:47;7.47;;;6.73;;
12631;SDS011;6381;45.748;12.106;2022-11-20T01:27:16;8.13;;;7.33;;
12631;SDS011;6381;45.748;12.106;2022-11-20T01:29:45;8.13;;;7.23;;
12631;SDS011;6381;45.748;12.106;2022-11-20T01:32:14;8.73;;;7.77;;
12631;SDS011;6381;45.748;12.106;2022-11-20T01:34:43;7.90;;;7.10;;
12631;SDS011;6381;45.748;12.106;2022-11-20T01:37:14;8.50;;;7.17;;
12631;SDS011;6381;45.748;12.106;2022-11-20T01:39:44;8.63;;;7.47;;
12631;SDS011;6381;45.748;12.106;2022-11-20T01:42:13;7.97;;;7.17;;
12631;SDS011;6381;45.748;12.106;2022-11-20T01:44:59;8.20;;;7.33;;
12631;SDS011;6381;45.748;12.106;2022-11-20T01:47:30;8.30;;;7.40;;
12631;SDS011;6381;45.748;12.106;2022-11-20T01:50:04;8.17;;;7.33;;
12631;SDS011;6381;45.748;12.106;2022-11-20T01:52:39;9.00;;;7.23;;
12631;SDS011;6381;45.748;12.106;2022-11-20T01:55:14;8.53;;;6.83;;
12631;SDS011;6381;45.748;12.106;2022-11-20T01:57:47;8.00;;;7.20;;
12631;SDS011;6381;45.748;12.106;2022-11-20T02:00:18;6.70;;;6.10;;
12631;SDS011;6381;45.748;12.106;2022-11-20T02:02:48;7.50;;;6.80;;
12631;SDS011;6381;45.748;12.106;2022-11-20T02:05:21;7.10;;;6.40;;
12631;SDS011;6381;45.748;12.106;2022-11-20T02:07:55;6.30;;;5.70;;
12631;SDS011;6381;45.748;12.106;2022-11-20T02:10:26;6.87;;;6.17;;
12631;SDS011;6381;45.748;12.106;2022-11-20T02:12:56;8.63;;;6.00;;
12631;SDS011;6381;45.748;12.106;2022-11-20T02:15:42;7.33;;;6.57;;
12631;SDS011;6381;45.748;12.106;2022-11-20T02:18:12;6.67;;;5.97;;
12631;SDS011;6381;45.748;12.106;2022-11-20T02:20:44;6.67;;;6.00;;
12631;SDS011;6381;45.748;12.106;2022-11-20T02:23:19;6.87;;;5.63;;
12631;SDS011;6381;45.748;12.106;2022-11-20T02:25:54;5.63;;;5.13;;
12631;SDS011;6381;45.748;12.106;2022-11-20T02:28:24;6.20;;;5.60;;
12631;SDS011;6381;45.748;12.106;2022-11-20T02:30:53;6.10;;;5.50;;
12631;SDS011;6381;45.748;12.106;2022-11-20T02:33:22;7.43;;;5.50;;
12631;SDS011;6381;45.748;12.106;2022-11-20T02:35:51;5.80;;;5.30;;
12631;SDS011;6381;45.748;12.106;2022-11-20T02:38:20;5.80;;;4.93;;
12631;SDS011;6381;45.748;12.106;2022-11-20T02:40:49;4.70;;;4.30;;
12631;SDS011;6381;45.748;12.106;2022-11-20T02:43:22;4.87;;;4.47;;
12631;SDS011;6381;45.748;12.106;2022-11-20T02:45:51;4.70;;;4.30;;
12631;SDS011;6381;45.748;12.106;2022-11-20T02:48:22;4.63;;;4.23;;
12631;SDS011;6381;45.748;12.106;2022-11-20T02:50:53;4.80;;;4.30;;
12631;SDS011;6381;45.748;12.106;2022-11-20T02:53:22;4.40;;;4.00;;
12631;SDS011;6381;45.748;12.106;2022-11-20T02:55:51;4.60;;;4.20;;
12631;SDS011;6381;45.748;12.106;2022-11-20T02:58:20;4.50;;;4.10;;
12631;SDS011;6381;45.748;12.106;2022-11-20T03:00:51;4.30;;;3.90;;
12631;SDS011;6381;45.748;12.106;2022-11-20T03:03:20;5.77;;;4.20;;
12631;SDS011;6381;45.748;12.106;2022-11-20T03:05:49;5.13;;;4.00;;
12631;SDS011;6381;45.748;12.106;2022-11-20T03:08:18;4.60;;;4.07;;
12631;SDS011;6381;45.748;12.106;2022-11-20T03:10:47;4.60;;;4.20;;
12631;SDS011;6381;45.748;12.106;2022-11-20T03:13:16;4.70;;;4.30;;
12631;SDS011;6381;45.748;12.106;2022-11-20T03:15:44;5.43;;;4.60;;
12631;SDS011;6381;45.748;12.106;2022-11-20T03:18:15;5.30;;;4.80;;
12631;SDS011;6381;45.748;12.106;2022-11-20T03:20:44;5.87;;;5.27;;
12631;SDS011;6381;45.748;12.106;2022-11-20T03:23:13;5.50;;;5.00;;
12631;SDS011;6381;45.748;12.106;2022-11-20T03:25:41;5.83;;;5.33;;
12631;SDS011;6381;45.748;12.106;2022-11-20T03:28:10;6.23;;;5.40;;
12631;SDS011;6381;45.748;12.106;2022-11-20T03:30:39;5.73;;;5.23;;
12631;SDS011;6381;45.748;12.106;2022-11-20T03:33:08;6.27;;;5.67;;
12631;SDS011;6381;45.748;12.106;2022-11-20T03:35:38;5.90;;;5.30;;
12631;SDS011;6381;45.748;12.106;2022-11-20T03:38:07;5.83;;;5.33;;
12631;SDS011;6381;45.748;12.106;2022-11-20T03:40:36;6.23;;;5.30;;
12631;SDS011;6381;45.748;12.106;2022-11-20T03:43:05;6.40;;;5.20;;
12631;SDS011;6381;45.748;12.106;2022-11-20T03:45:34;5.97;;;5.40;;
12631;SDS011;6381;45.748;12.106;2022-11-20T03:48:03;5.60;;;5.00;;
12631;SDS011;6381;45.748;12.106;2022-11-20T03:50:32;5.50;;;5.00;;
12631;SDS011;6381;45.748;12.106;2022-11-20T03:53:02;5.60;;;5.10;;
12631;SDS011;6381;45.748;12.106;2022-11-20T03:55:31;5.67;;;5.17;;
12631;SDS011;6381;45.748;12.106;2022-11-20T03:58:00;5.77;;;5.27;;
12631;SDS011;6381;45.748;12.106;2022-11-20T04:00:29;5.70;;;5.20;;
12631;SDS011;6381;45.748;12.106;2022-11-20T04:02:58;5.80;;;5.20;;
12631;SDS011;6381;45.748;12.106;2022-11-20T04:05:27;6.10;;;5.50;;
12631;SDS011;6381;45.748;12.106;2022-11-20T04:07:57;8.50;;;7.60;;
12631;SDS011;6381;45.748;12.106;2022-11-20T04:10:27;14.83;;;12.13;;
12631;SDS011;6381;45.748;12.106;2022-11-20T04:12:56;10.83;;;9.70;;
12631;SDS011;6381;45.748;12.106;2022-11-20T04:15:25;10.70;;;9.63;;
12631;SDS011;6381;45.748;12.106;2022-11-20T04:17:54;17.30;;;14.97;;
12631;SDS011;6381;45.748;12.106;2022-11-20T04:20:23;28.67;;;24.70;;
12631;SDS011;6381;45.748;12.106;2022-11-20T04:22:53;25.27;;;22.67;;
12631;SDS011;6381;45.748;12.106;2022-11-20T04:25:22;18.40;;;16.60;;
12631;SDS011;6381;45.748;12.106;2022-11-20T04:27:56;11.40;;;10.40;;
12631;SDS011;6381;45.748;12.106;2022-11-20T04:30:25;8.50;;;7.70;;
12631;SDS011;6381;45.748;12.106;2022-11-20T04:32:53;7.93;;;7.13;;
12631;SDS011;6381;45.748;12.106;2022-11-20T04:35:22;7.07;;;6.47;;
12631;SDS011;6381;45.748;12.106;2022-11-20T04:37:51;6.50;;;6.00;;
12631;SDS011;6381;45.748;12.106;2022-11-20T04:40:20;6.40;;;5.80;;
12631;SDS011;6381;45.748;12.106;2022-11-20T04:42:49;6.80;;;6.10;;
12631;SDS011;6381;45.748;12.106;2022-11-20T04:45:19;7.30;;;6.70;;
12631;SDS011;6381;45.748;12.106;2022-11-20T04:47:49;7.87;;;6.10;;
12631;SDS011;6381;45.748;12.106;2022-11-20T04:50:18;6.57;;;5.97;;
12631;SDS011;6381;45.748;12.106;2022-11-20T04:52:46;6.53;;;5.93;;
12631;SDS011;6381;45.748;12.106;2022-11-20T04:55:15;6.47;;;5.70;;
12631;SDS011;6381;45.748;12.106;2022-11-20T04:57:44;6.37;;;5.87;;
12631;SDS011;6381;45.748;12.106;2022-11-20T05:00:14;6.73;;;6.13;;
12631;SDS011;6381;45.748;12.106;2022-11-20T05:02:45;5.87;;;5.27;;
12631;SDS011;6381;45.748;12.106;2022-11-20T05:05:14;6.23;;;5.63;;
12631;SDS011;6381;45.748;12.106;2022-11-20T05:07:42;5.43;;;4.93;;
12631;SDS011;6381;45.748;12.106;2022-11-20T05:10:11;6.30;;;5.70;;
12631;SDS011;6381;45.748;12.106;2022-11-20T05:12:40;6.23;;;5.63;;
12631;SDS011;6381;45.748;12.106;2022-11-20T05:15:09;7.27;;;5.97;;
12631;SDS011;6381;45.748;12.106;2022-11-20T05:17:38;6.43;;;5.80;;
12631;SDS011;6381;45.748;12.106;2022-11-20T05:20:09;5.70;;;5.20;;
12631;SDS011;6381;45.748;12.106;2022-11-20T05:22:39;6.13;;;5.50;;
12631;SDS011;6381;45.748;12.106;2022-11-20T05:25:08;6.27;;;5.67;;
12631;SDS011;6381;45.748;12.106;2022-11-20T05:27:37;6.13;;;5.53;;
12631;SDS011;6381;45.748;12.106;2022-11-20T05:30:06;6.17;;;5.57;;
12631;SDS011;6381;45.748;12.106;2022-11-20T05:32:36;6.40;;;5.80;;
12631;SDS011;6381;45.748;12.106;2022-11-20T05:35:06;6.50;;;5.70;;
12631;SDS011;6381;45.748;12.106;2022-11-20T05:37:37;6.37;;;5.73;;
12631;SDS011;6381;45.748;12.106;2022-11-20T05:40:06;6.50;;;5.90;;
12631;SDS011;6381;45.748;12.106;2022-11-20T05:42:36;7.10;;;6.27;;
12631;SDS011;6381;45.748;12.106;2022-11-20T05:45:05;6.67;;;6.00;;
12631;SDS011;6381;45.748;12.106;2022-11-20T05:47:35;7.90;;;7.10;;
12631;SDS011;6381;45.748;12.106;2022-11-20T05:50:04;8.80;;;7.90;;
12631;SDS011;6381;45.748;12.106;2022-11-20T05:52:35;8.53;;;7.73;;
12631;SDS011;6381;45.748;12.106;2022-11-20T05:55:04;8.30;;;7.50;;
12631;SDS011;6381;45.748;12.106;2022-11-20T05:57:34;7.70;;;7.00;;
12631;SDS011;6381;45.748;12.106;2022-11-20T06:00:03;8.07;;;6.37;;
12631;SDS011;6381;45.748;12.106;2022-11-20T06:02:34;7.63;;;6.63;;
12631;SDS011;6381;45.748;12.106;2022-11-20T06:05:03;7.17;;;6.50;;
12631;SDS011;6381;45.748;12.106;2022-11-20T06:07:34;8.57;;;6.97;;
12631;SDS011;6381;45.748;12.106;2022-11-20T06:10:04;7.27;;;6.57;;
12631;SDS011;6381;45.748;12.106;2022-11-20T06:12:33;7.70;;;7.00;;
12631;SDS011;6381;45.748;12.106;2022-11-20T06:15:02;8.63;;;6.57;;
12631;SDS011;6381;45.748;12.106;2022-11-20T06:17:31;7.90;;;7.20;;
12631;SDS011;6381;45.748;12.106;2022-11-20T06:20:00;7.90;;;7.20;;
12631;SDS011;6381;45.748;12.106;2022-11-20T06:22:29;9.30;;;8.13;;
12631;SDS011;6381;45.748;12.106;2022-11-20T06:24:59;7.70;;;6.90;;
12631;SDS011;6381;45.748;12.106;2022-11-20T06:27:28;8.47;;;7.13;;
12631;SDS011;6381;45.748;12.106;2022-11-20T06:29:57;7.10;;;6.50;;
12631;SDS011;6381;45.748;12.106;2022-11-20T06:32:26;6.93;;;6.23;;
12631;SDS011;6381;45.748;12.106;2022-11-20T06:34:55;6.80;;;6.20;;
12631;SDS011;6381;45.748;12.106;2022-11-20T06:37:23;6.57;;;6.00;;
12631;SDS011;6381;45.748;12.106;2022-11-20T06:39:52;7.13;;;6.50;;
12631;SDS011;6381;45.748;12.106;2022-11-20T06:42:23;6.97;;;6.23;;
12631;SDS011;6381;45.748;12.106;2022-11-20T06:44:52;6.43;;;5.83;;
12631;SDS011;6381;45.748;12.106;2022-11-20T06:47:21;6.30;;;5.73;;
12631;SDS011;6381;45.748;12.106;2022-11-20T06:49:49;6.33;;;5.77;;
12631;SDS011;6381;45.748;12.106;2022-11-20T06:57:00;6.97;;;6.37;;
12631;SDS011;6381;45.748;12.106;2022-11-20T06:59:29;8.53;;;6.30;;
12631;SDS011;6381;45.748;12.106;2022-11-20T07:01:58;6.83;;;6.03;;
12631;SDS011;6381;45.748;12.106;2022-11-20T07:06:04;7.07;;;6.47;;
12631;SDS011;6381;45.748;12.106;2022-11-20T07:08:36;7.27;;;6.57;;
12631;SDS011;6381;45.748;12.106;2022-11-20T07:11:06;7.93;;;7.23;;
12631;SDS011;6381;45.748;12.106;2022-11-20T07:13:35;7.40;;;6.77;;
12631;SDS011;6381;45.748;12.106;2022-11-20T07:16:05;7.10;;;6.50;;
12631;SDS011;6381;45.748;12.106;2022-11-20T07:18:35;6.70;;;6.10;;
12631;SDS011;6381;45.748;12.106;2022-11-20T07:22:41;6.20;;;5.70;;
12631;SDS011;6381;45.748;12.106;2022-11-20T07:25:10;7.23;;;6.53;;
12631;SDS011;6381;45.748;12.106;2022-11-20T07:27:39;6.57;;;5.87;;
12631;SDS011;6381;45.748;12.106;2022-11-20T07:30:08;6.60;;;6.00;;
12631;SDS011;6381;45.748;12.106;2022-11-20T07:32:37;7.20;;;6.40;;
12631;SDS011;6381;45.748;12.106;2022-11-20T07:35:06;7.23;;;6.20;;
12631;SDS011;6381;45.748;12.106;2022-11-20T07:37:35;7.30;;;6.60;;
12631;SDS011;6381;45.748;12.106;2022-11-20T07:40:06;7.20;;;6.50;;
12631;SDS011;6381;45.748;12.106;2022-11-20T07:42:35;6.87;;;6.27;;
12631;SDS011;6381;45.748;12.106;2022-11-20T07:45:05;7.83;;;7.07;;
12631;SDS011;6381;45.748;12.106;2022-11-20T07:47:35;7.60;;;6.90;;
12631;SDS011;6381;45.748;12.106;2022-11-20T07:50:04;7.83;;;7.03;;
12631;SDS011;6381;45.748;12.106;2022-11-20T07:52:34;7.50;;;6.80;;
12631;SDS011;6381;45.748;12.106;2022-11-20T07:55:03;7.73;;;6.93;;
12631;SDS011;6381;45.748;12.106;2022-11-20T07:57:34;7.70;;;6.70;;
12631;SDS011;6381;45.748;12.106;2022-11-20T08:00:04;7.63;;;6.73;;
12631;SDS011;6381;45.748;12.106;2022-11-20T08:02:38;8.50;;;7.70;;
12631;SDS011;6381;45.748;12.106;2022-11-20T08:05:08;8.40;;;7.60;;
12631;SDS011;6381;45.748;12.106;2022-11-20T08:07:37;9.70;;;8.27;;
12631;SDS011;6381;45.748;12.106;2022-11-20T08:10:09;7.70;;;6.90;;
12631;SDS011;6381;45.748;12.106;2022-11-20T08:12:43;9.00;;;7.67;;
12631;SDS011;6381;45.748;12.106;2022-11-20T08:15:30;8.20;;;7.50;;
12631;SDS011;6381;45.748;12.106;2022-11-20T08:18:03;6.83;;;6.13;;
12631;SDS011;6381;45.748;12.106;2022-11-20T08:20:53;7.17;;;6.47;;
12631;SDS011;6381;45.748;12.106;2022-11-20T08:23:22;6.07;;;5.47;;
12631;SDS011;6381;45.748;12.106;2022-11-20T08:25:52;5.43;;;5.00;;
12631;SDS011;6381;45.748;12.106;2022-11-20T08:28:21;4.97;;;4.50;;
12631;SDS011;6381;45.748;12.106;2022-11-20T08:30:50;5.00;;;4.50;;
12631;SDS011;6381;45.748;12.106;2022-11-20T08:33:19;4.83;;;4.43;;
12631;SDS011;6381;45.748;12.106;2022-11-20T08:35:48;4.87;;;4.37;;
12631;SDS011;6381;45.748;12.106;2022-11-20T08:38:17;6.23;;;4.53;;
12631;SDS011;6381;45.748;12.106;2022-11-20T08:40:45;5.20;;;4.07;;
12631;SDS011;6381;45.748;12.106;2022-11-20T08:43:36;5.07;;;4.10;;
12631;SDS011;6381;45.748;12.106;2022-11-20T08:46:04;5.00;;;4.50;;
12631;SDS011;6381;45.748;12.106;2022-11-20T08:48:33;3.97;;;3.57;;
12631;SDS011;6381;45.748;12.106;2022-11-20T08:51:02;4.33;;;3.93;;
12631;SDS011;6381;45.748;12.106;2022-11-20T08:55:18;4.10;;;3.70;;
12631;SDS011;6381;45.748;12.106;2022-11-20T08:57:47;6.50;;;3.77;;
12631;SDS011;6381;45.748;12.106;2022-11-20T09:00:16;4.40;;;4.00;;
12631;SDS011;6381;45.748;12.106;2022-11-20T09:02:45;3.60;;;3.30;;
12631;SDS011;6381;45.748;12.106;2022-11-20T09:05:14;3.83;;;3.53;;
12631;SDS011;6381;45.748;12.106;2022-11-20T09:07:43;4.10;;;3.73;;
12631;SDS011;6381;45.748;12.106;2022-11-20T09:10:12;3.60;;;3.30;;
12631;SDS011;6381;45.748;12.106;2022-11-20T09:12:51;5.30;;;3.10;;
12631;SDS011;6381;45.748;12.106;2022-11-20T09:15:22;3.77;;;3.40;;
12631;SDS011;6381;45.748;12.106;2022-11-20T09:17:51;3.10;;;2.80;;
12631;SDS011;6381;45.748;12.106;2022-11-20T09:20:20;3.70;;;3.40;;
12631;SDS011;6381;45.748;12.106;2022-11-20T09:22:49;3.40;;;3.10;;
12631;SDS011;6381;45.748;12.106;2022-11-20T09:25:18;4.33;;;3.00;;
12631;SDS011;6381;45.748;12.106;2022-11-20T09:27:47;3.13;;;2.83;;
12631;SDS011;6381;45.748;12.106;2022-11-20T09:30:17;2.77;;;2.57;;
12631;SDS011;6381;45.748;12.106;2022-11-20T09:32:46;4.53;;;2.97;;
12631;SDS011;6381;45.748;12.106;2022-11-20T09:35:15;2.67;;;2.47;;
12631;SDS011;6381;45.748;12.106;2022-11-20T09:37:44;3.40;;;2.60;;
12631;SDS011;6381;45.748;12.106;2022-11-20T09:40:18;3.27;;;2.97;;
12631;SDS011;6381;45.748;12.106;2022-11-20T09:42:50;4.33;;;2.80;;
12631;SDS011;6381;45.748;12.106;2022-11-20T09:45:30;3.63;;;2.90;;
12631;SDS011;6381;45.748;12.106;2022-11-20T09:51:06;3.40;;;2.20;;
12631;SDS011;6381;45.748;12.106;2022-11-20T09:53:46;2.40;;;2.00;;
12631;SDS011;6381;45.748;12.106;2022-11-20T09:56:23;2.40;;;2.20;;
12631;SDS011;6381;45.748;12.106;2022-11-20T09:58:54;2.80;;;2.20;;
12631;SDS011;6381;45.748;12.106;2022-11-20T10:01:30;4.40;;;3.10;;
12631;SDS011;6381;45.748;12.106;2022-11-20T10:04:02;4.73;;;3.00;;
12631;SDS011;6381;45.748;12.106;2022-11-20T10:06:34;2.47;;;2.17;;
12631;SDS011;6381;45.748;12.106;2022-11-20T10:09:15;3.17;;;2.23;;
12631;SDS011;6381;45.748;12.106;2022-11-20T10:11:52;3.27;;;2.67;;
12631;SDS011;6381;45.748;12.106;2022-11-20T10:14:34;5.73;;;4.03;;
12631;SDS011;6381;45.748;12.106;2022-11-20T10:17:12;3.37;;;2.70;;
12631;SDS011;6381;45.748;12.106;2022-11-20T10:19:52;2.63;;;2.13;;
12631;SDS011;6381;45.748;12.106;2022-11-20T10:22:34;3.77;;;2.80;;
12631;SDS011;6381;45.748;12.106;2022-11-20T10:25:14;3.73;;;2.57;;
12631;SDS011;6381;45.748;12.106;2022-11-20T10:27:52;2.50;;;2.30;;
12631;SDS011;6381;45.748;12.106;2022-11-20T10:30:36;3.90;;;2.47;;
12631;SDS011;6381;45.748;12.106;2022-11-20T10:33:10;3.10;;;2.30;;
12631;SDS011;6381;45.748;12.106;2022-11-20T10:35:44;2.83;;;2.53;;
12631;SDS011;6381;45.748;12.106;2022-11-20T10:38:19;2.50;;;2.20;;
12631;SDS011;6381;45.748;12.106;2022-11-20T10:40:52;2.03;;;1.83;;
12631;SDS011;6381;45.748;12.106;2022-11-20T10:43:45;4.40;;;3.07;;
12631;SDS011;6381;45.748;12.106;2022-11-20T10:46:16;4.33;;;2.93;;
12631;SDS011;6381;45.748;12.106;2022-11-20T10:48:50;5.73;;;4.13;;
12631;SDS011;6381;45.748;12.106;2022-11-20T10:51:22;4.37;;;2.43;;
12631;SDS011;6381;45.748;12.106;2022-11-20T10:54:06;2.50;;;2.00;;
12631;SDS011;6381;45.748;12.106;2022-11-20T10:56:45;4.60;;;2.10;;
12631;SDS011;6381;45.748;12.106;2022-11-20T10:59:24;2.43;;;1.70;;
12631;SDS011;6381;45.748;12.106;2022-11-20T11:02:15;2.60;;;1.90;;
12631;SDS011;6381;45.748;12.106;2022-11-20T11:04:47;6.70;;;3.80;;
12631;SDS011;6381;45.748;12.106;2022-11-20T11:07:18;3.50;;;1.80;;
12631;SDS011;6381;45.748;12.106;2022-11-20T11:09:52;3.30;;;2.00;;
12631;SDS011;6381;45.748;12.106;2022-11-20T11:12:23;3.13;;;1.83;;
12631;SDS011;6381;45.748;12.106;2022-11-20T11:14:54;6.67;;;1.90;;
12631;SDS011;6381;45.748;12.106;2022-11-20T11:17:25;3.53;;;2.77;;
12631;SDS011;6381;45.748;12.106;2022-11-20T11:20:00;3.30;;;2.50;;
12631;SDS011;6381;45.748;12.106;2022-11-20T11:22:31;3.27;;;2.27;;
12631;SDS011;6381;45.748;12.106;2022-11-20T11:25:02;3.27;;;2.73;;
12631;SDS011;6381;45.748;12.106;2022-11-20T11:27:31;3.07;;;2.13;;
12631;SDS011;6381;45.748;12.106;2022-11-20T11:30:12;6.77;;;2.60;;
12631;SDS011;6381;45.748;12.106;2022-11-20T11:32:42;4.53;;;2.90;;
12631;SDS011;6381;45.748;12.106;2022-11-20T11:35:20;3.27;;;2.30;;
12631;SDS011;6381;45.748;12.106;2022-11-20T11:37:52;4.53;;;2.50;;
12631;SDS011;6381;45.748;12.106;2022-11-20T11:40:31;6.97;;;3.83;;
12631;SDS011;6381;45.748;12.106;2022-11-20T11:43:03;6.00;;;3.37;;
12631;SDS011;6381;45.748;12.106;2022-11-20T11:45:54;3.57;;;2.87;;
12631;SDS011;6381;45.748;12.106;2022-11-20T11:48:22;3.30;;;2.77;;
12631;SDS011;6381;45.748;12.106;2022-11-20T11:50:52;8.57;;;2.60;;
12631;SDS011;6381;45.748;12.106;2022-11-20T11:53:22;3.57;;;2.40;;
12631;SDS011;6381;45.748;12.106;2022-11-20T11:55:56;3.63;;;2.10;;
12631;SDS011;6381;45.748;12.106;2022-11-20T11:58:36;3.40;;;2.17;;
12631;SDS011;6381;45.748;12.106;2022-11-20T12:01:16;3.00;;;1.80;;
12631;SDS011;6381;45.748;12.106;2022-11-20T12:03:55;3.77;;;2.17;;
12631;SDS011;6381;45.748;12.106;2022-11-20T12:06:35;3.23;;;2.10;;
12631;SDS011;6381;45.748;12.106;2022-11-20T12:09:08;3.40;;;2.13;;
12631;SDS011;6381;45.748;12.106;2022-11-20T12:11:42;3.40;;;2.17;;
12631;SDS011;6381;45.748;12.106;2022-11-20T12:14:15;7.40;;;1.97;;
12631;SDS011;6381;45.748;12.106;2022-11-20T12:16:51;5.10;;;2.15;;
12631;SDS011;6381;45.748;12.106;2022-11-20T12:19:22;3.58;;;2.08;;
12631;SDS011;6381;45.748;12.106;2022-11-20T12:21:56;3.58;;;2.60;;
12631;SDS011;6381;45.748;12.106;2022-11-20T12:24:37;4.87;;;2.00;;
12631;SDS011;6381;45.748;12.106;2022-11-20T12:27:22;3.20;;;2.30;;
12631;SDS011;6381;45.748;12.106;2022-11-20T12:30:18;3.53;;;1.77;;
12631;SDS011;6381;45.748;12.106;2022-11-20T12:35:55;6.43;;;2.00;;
12631;SDS011;6381;45.748;12.106;2022-11-20T12:38:57;2.65;;;1.70;;
12631;SDS011;6381;45.748;12.106;2022-11-20T12:41:42;2.80;;;2.30;;
12631;SDS011;6381;45.748;12.106;2022-11-20T12:44:52;4.18;;;2.20;;
12631;SDS011;6381;45.748;12.106;2022-11-20T12:47:43;2.97;;;2.23;;
12631;SDS011;6381;45.748;12.106;2022-11-20T12:50:36;4.07;;;2.77;;
12631;SDS011;6381;45.748;12.106;2022-11-20T12:53:36;4.03;;;2.10;;
12631;SDS011;6381;45.748;12.106;2022-11-20T12:56:17;2.72;;;2.40;;
12631;SDS011;6381;45.748;12.106;2022-11-20T12:58:58;3.53;;;2.88;;
12631;SDS011;6381;45.748;12.106;2022-11-20T13:01:37;4.43;;;2.28;;
12631;SDS011;6381;45.748;12.106;2022-11-20T13:04:18;2.80;;;2.20;;
12631;SDS011;6381;45.748;12.106;2022-11-20T13:06:59;2.70;;;2.20;;
12631;SDS011;6381;45.748;12.106;2022-11-20T13:09:29;3.65;;;2.35;;
12631;SDS011;6381;45.748;12.106;2022-11-20T13:12:04;2.65;;;2.08;;
12631;SDS011;6381;45.748;12.106;2022-11-20T13:14:40;2.97;;;2.20;;
12631;SDS011;6381;45.748;12.106;2022-11-20T13:17:14;4.65;;;2.60;;
12631;SDS011;6381;45.748;12.106;2022-11-20T13:19:48;3.47;;;2.15;;
12631;SDS011;6381;45.748;12.106;2022-11-20T13:22:26;3.22;;;2.63;;
12631;SDS011;6381;45.748;12.106;2022-11-20T13:24:56;6.93;;;3.35;;
12631;SDS011;6381;45.748;12.106;2022-11-20T13:27:26;6.47;;;3.05;;
12631;SDS011;6381;45.748;12.106;2022-11-20T13:30:02;4.35;;;2.63;;
12631;SDS011;6381;45.748;12.106;2022-11-20T13:32:47;2.30;;;2.10;;
12631;SDS011;6381;45.748;12.106;2022-11-20T13:35:25;2.20;;;2.00;;
12631;SDS011;6381;45.748;12.106;2022-11-20T13:37:59;3.67;;;2.08;;
12631;SDS011;6381;45.748;12.106;2022-11-20T13:40:34;4.05;;;2.20;;
12631;SDS011;6381;45.748;12.106;2022-11-20T13:43:11;3.53;;;2.25;;
12631;SDS011;6381;45.748;12.106;2022-11-20T13:45:54;3.13;;;2.15;;
12631;SDS011;6381;45.748;12.106;2022-11-20T13:48:25;3.10;;;2.47;;
12631;SDS011;6381;45.748;12.106;2022-11-20T13:51:00;3.38;;;1.90;;
12631;SDS011;6381;45.748;12.106;2022-11-20T13:56:48;3.63;;;2.13;;
12631;SDS011;6381;45.748;12.106;2022-11-20T13:59:35;2.58;;;2.00;;
12631;SDS011;6381;45.748;12.106;2022-11-20T14:02:12;2.40;;;2.20;;
12631;SDS011;6381;45.748;12.106;2022-11-20T14:04:43;2.40;;;2.13;;
12631;SDS011;6381;45.748;12.106;2022-11-20T14:07:14;3.92;;;2.25;;
12631;SDS011;6381;45.748;12.106;2022-11-20T14:09:49;3.10;;;2.30;;
12631;SDS011;6381;45.748;12.106;2022-11-20T14:12:20;3.70;;;2.20;;
12631;SDS011;6381;45.748;12.106;2022-11-20T14:14:52;4.22;;;2.20;;
12631;SDS011;6381;45.748;12.106;2022-11-20T14:17:22;4.03;;;2.22;;
12631;SDS011;6381;45.748;12.106;2022-11-20T14:19:58;4.20;;;2.30;;
12631;SDS011;6381;45.748;12.106;2022-11-20T14:22:30;2.75;;;2.20;;
12631;SDS011;6381;45.748;12.106;2022-11-20T14:25:03;2.47;;;2.28;;
12631;SDS011;6381;45.748;12.106;2022-11-20T14:27:34;3.70;;;2.20;;
12631;SDS011;6381;45.748;12.106;2022-11-20T14:30:11;6.85;;;2.35;;
12631;SDS011;6381;45.748;12.106;2022-11-20T14:32:42;6.22;;;2.65;;
12631;SDS011;6381;45.748;12.106;2022-11-20T14:35:13;3.00;;;2.40;;
12631;SDS011;6381;45.748;12.106;2022-11-20T14:37:48;3.05;;;2.30;;
12631;SDS011;6381;45.748;12.106;2022-11-20T14:40:25;2.97;;;2.65;;
12631;SDS011;6381;45.748;12.106;2022-11-20T14:42:56;2.67;;;2.47;;
12631;SDS011;6381;45.748;12.106;2022-11-20T14:45:27;3.10;;;2.80;;
12631;SDS011;6381;45.748;12.106;2022-11-20T14:47:56;4.38;;;3.30;;
12631;SDS011;6381;45.748;12.106;2022-11-20T14:50:28;4.60;;;3.55;;
12631;SDS011;6381;45.748;12.106;2022-11-20T14:52:58;5.80;;;3.45;;
12631;SDS011;6381;45.748;12.106;2022-11-20T14:55:28;3.25;;;2.95;;
12631;SDS011;6381;45.748;12.106;2022-11-20T14:58:00;3.83;;;2.75;;
12631;SDS011;6381;45.748;12.106;2022-11-20T15:00:32;3.50;;;3.20;;
12631;SDS011;6381;45.748;12.106;2022-11-20T15:03:02;4.88;;;3.10;;
12631;SDS011;6381;45.748;12.106;2022-11-20T15:05:46;3.83;;;2.88;;
12631;SDS011;6381;45.748;12.106;2022-11-20T15:08:16;6.68;;;3.00;;
12631;SDS011;6381;45.748;12.106;2022-11-20T15:10:46;4.60;;;3.13;;
12631;SDS011;6381;45.748;12.106;2022-11-20T15:13:17;3.70;;;3.10;;
12631;SDS011;6381;45.748;12.106;2022-11-20T15:15:52;4.22;;;3.42;;
12631;SDS011;6381;45.748;12.106;2022-11-20T15:18:23;4.68;;;3.17;;
12631;SDS011;6381;45.748;12.106;2022-11-20T15:20:55;4.60;;;3.72;;
12631;SDS011;6381;45.748;12.106;2022-11-20T15:23:25;5.67;;;3.90;;
12631;SDS011;6381;45.748;12.106;2022-11-20T15:25:55;5.50;;;3.90;;
12631;SDS011;6381;45.748;12.106;2022-11-20T15:28:26;4.35;;;3.95;;
12631;SDS011;6381;45.748;12.106;2022-11-20T15:31:00;5.57;;;4.87;;
12631;SDS011;6381;45.748;12.106;2022-11-20T15:33:30;6.87;;;4.60;;
12631;SDS011;6381;45.748;12.106;2022-11-20T15:35:59;5.40;;;4.90;;
12631;SDS011;6381;45.748;12.106;2022-11-20T15:38:28;5.67;;;4.70;;
12631;SDS011;6381;45.748;12.106;2022-11-20T15:40:57;5.90;;;4.87;;
12631;SDS011;6381;45.748;12.106;2022-11-20T15:43:26;5.53;;;4.33;;
12631;SDS011;6381;45.748;12.106;2022-11-20T15:45:55;5.50;;;4.90;;
12631;SDS011;6381;45.748;12.106;2022-11-20T15:48:29;4.83;;;4.33;;
12631;SDS011;6381;45.748;12.106;2022-11-20T15:51:03;5.30;;;4.77;;
12631;SDS011;6381;45.748;12.106;2022-11-20T15:53:42;5.77;;;5.03;;
12631;SDS011;6381;45.748;12.106;2022-11-20T15:56:11;5.30;;;4.80;;
12631;SDS011;6381;45.748;12.106;2022-11-20T15:58:40;5.40;;;4.90;;
12631;SDS011;6381;45.748;12.106;2022-11-20T16:07:08;5.90;;;5.30;;
12631;SDS011;6381;45.748;12.106;2022-11-20T16:09:37;6.63;;;6.03;;
12631;SDS011;6381;45.748;12.106;2022-11-20T16:12:07;6.60;;;6.00;;